Time;durP1;ratioP1;P1;durP2;ratioP2;P2;SDS_P1;SDS_P2;PMS_P1;PMS_P2;Temp;Humidity;BMP_temperature;BMP_pressure;BME280_temperature;BME280_humidity;BME280_pressure;Samples;Min_cycle;Max_cycle;Signal;HPM_P1;HPM_P2
2022/03/21 00:01:48;;;;;;;11.80;7.68;;;;;;;;;;4969477;28;20092;-70
2022/03/21 00:04:13;;;;;;;12.73;7.78;;;;;;;;;;4973542;28;20046;-71
2022/03/21 00:06:40;;;;;;;11.63;7.72;;;;;;;;;;4975106;28;20124;-70
2022/03/21 00:09:06;;;;;;;12.80;7.07;;;;;;;;;;4976640;28;20045;-70
2022/03/21 00:11:33;;;;;;;12.32;7.47;;;;;;;;;;4972801;28;20030;-70
2022/03/21 00:13:59;;;;;;;13.55;7.38;;;;;;;;;;4974080;28;20038;-70
2022/03/21 00:16:25;;;;;;;20.80;8.85;;;;;;;;;;4975131;28;20054;-69
2022/03/21 00:18:51;;;;;;;14.00;7.28;;;;;;;;;;4975055;28;20157;-71
2022/03/21 00:21:17;;;;;;;11.05;7.05;;;;;;;;;;4969600;28;20035;-71
2022/03/21 00:23:42;;;;;;;10.10;7.13;;;;;;;;;;4970844;28;20037;-71
2022/03/21 00:26:08;;;;;;;13.15;7.00;;;;;;;;;;4970327;28;20041;-71
2022/03/21 00:28:33;;;;;;;9.35;6.57;;;;;;;;;;4976236;28;20051;-70
2022/03/21 00:30:59;;;;;;;14.02;7.38;;;;;;;;;;4951801;28;20034;-70
2022/03/21 00:33:24;;;;;;;12.32;6.95;;;;;;;;;;4978177;28;20034;-70
2022/03/21 00:35:51;;;;;;;11.82;6.63;;;;;;;;;;4954153;28;20031;-70
2022/03/21 00:38:18;;;;;;;10.95;6.55;;;;;;;;;;4976477;28;20430;-70
2022/03/21 00:40:45;;;;;;;9.10;6.43;;;;;;;;;;4968559;28;20444;-70
2022/03/21 00:43:13;;;;;;;11.60;7.13;;;;;;;;;;4970480;28;20496;-70
2022/03/21 00:45:38;;;;;;;11.32;7.82;;;;;;;;;;4975728;28;20034;-69
2022/03/21 00:48:04;;;;;;;12.32;7.72;;;;;;;;;;4980692;28;20092;-70
2022/03/21 00:50:30;;;;;;;11.30;6.95;;;;;;;;;;4970487;28;20042;-70
2022/03/21 00:52:56;;;;;;;8.52;6.10;;;;;;;;;;4980052;28;20555;-70
2022/03/21 00:55:28;;;;;;;12.27;7.60;;;;;;;;;;4980156;28;20066;-70
2022/03/21 00:57:55;;;;;;;;;;;;;;;;;;4977734;28;20496;-71
2022/03/21 01:00:24;;;;;;;9.60;5.97;;;;;;;;;;4977437;28;20012;-70
2022/03/21 01:02:49;;;;;;;11.45;6.38;;;;;;;;;;4965325;28;20045;-70
2022/03/21 01:05:15;;;;;;;10.75;6.72;;;;;;;;;;4978267;28;20125;-71
2022/03/21 01:07:41;;;;;;;13.40;7.10;;;;;;;;;;4971324;28;20029;-70
2022/03/21 01:10:09;;;;;;;12.90;7.57;;;;;;;;;;4980825;28;20045;-70
2022/03/21 01:12:35;;;;;;;10.88;7.32;;;;;;;;;;4973140;28;20113;-71
2022/03/21 01:15:01;;;;;;;12.68;6.47;;;;;;;;;;4963837;28;20175;-70
2022/03/21 01:17:26;;;;;;;12.43;7.40;;;;;;;;;;4976974;28;20477;-71
2022/03/21 01:19:52;;;;;;;12.00;7.13;;;;;;;;;;4967514;28;20499;-70
2022/03/21 01:22:17;;;;;;;14.15;6.75;;;;;;;;;;4975311;28;20030;-70
2022/03/21 01:24:43;;;;;;;15.18;7.90;;;;;;;;;;4973526;28;20362;-70
2022/03/21 01:27:09;;;;;;;14.73;7.53;;;;;;;;;;4980618;28;20126;-70
2022/03/21 01:29:35;;;;;;;11.32;7.78;;;;;;;;;;4965728;28;20030;-71
2022/03/21 01:32:01;;;;;;;14.15;7.95;;;;;;;;;;4970583;28;20046;-70
2022/03/21 01:34:27;;;;;;;14.23;7.57;;;;;;;;;;4971327;28;20038;-70
2022/03/21 01:36:53;;;;;;;10.35;7.07;;;;;;;;;;4975731;28;20084;-70
2022/03/21 01:39:19;;;;;;;13.52;8.15;;;;;;;;;;4973233;28;21007;-70
2022/03/21 01:41:45;;;;;;;11.70;7.43;;;;;;;;;;4977370;28;20085;-71
2022/03/21 01:44:11;;;;;;;13.10;7.57;;;;;;;;;;4974770;28;20038;-70
2022/03/21 01:46:38;;;;;;;11.30;7.65;;;;;;;;;;4976760;28;20395;-70
2022/03/21 01:49:06;;;;;;;12.50;7.20;;;;;;;;;;4979438;28;20053;-70
2022/03/21 01:51:32;;;;;;;10.98;7.07;;;;;;;;;;4979030;28;20043;-70
2022/03/21 01:56:45;;;;;;;11.55;7.68;;;;;;;;;;4976388;28;20107;-71
2022/03/21 01:59:12;;;;;;;12.30;6.75;;;;;;;;;;4983517;28;20034;-70
2022/03/21 02:01:39;;;;;;;16.42;7.97;;;;;;;;;;4976319;28;20078;-71
2022/03/21 02:04:05;;;;;;;12.82;7.93;;;;;;;;;;4981960;28;20110;-71
2022/03/21 02:06:31;;;;;;;13.68;8.23;;;;;;;;;;4980236;28;20034;-70
2022/03/21 02:08:58;;;;;;;13.20;7.75;;;;;;;;;;4983427;28;20034;-70
2022/03/21 02:11:25;;;;;;;10.98;7.45;;;;;;;;;;4983462;28;20034;-70
2022/03/21 02:13:53;;;;;;;12.38;6.82;;;;;;;;;;4983297;28;20072;-70
2022/03/21 02:16:19;;;;;;;10.23;6.72;;;;;;;;;;4982139;28;20096;-70
2022/03/21 02:18:46;;;;;;;10.95;7.32;;;;;;;;;;4982268;28;20046;-70
2022/03/21 02:21:18;;;;;;;12.90;7.25;;;;;;;;;;4975612;28;20054;-71
2022/03/21 02:23:55;;;;;;;11.02;6.80;;;;;;;;;;4982720;28;20478;-71
2022/03/21 02:26:21;;;;;;;10.27;7.15;;;;;;;;;;4983060;28;20077;-70
2022/03/21 02:28:48;;;;;;;12.30;7.93;;;;;;;;;;4981593;28;20077;-70
2022/03/21 02:31:15;;;;;;;14.23;8.27;;;;;;;;;;4956832;28;20669;-70
2022/03/21 02:33:41;;;;;;;12.52;7.25;;;;;;;;;;4969810;28;20086;-71
2022/03/21 02:36:08;;;;;;;10.52;6.78;;;;;;;;;;4975881;28;20034;-70
2022/03/21 02:38:34;;;;;;;10.95;7.00;;;;;;;;;;4974717;28;20548;-69
2022/03/21 02:41:00;;;;;;;11.95;6.53;;;;;;;;;;4981934;28;20066;-70
2022/03/21 02:43:25;;;;;;;12.20;7.35;;;;;;;;;;4981011;28;20061;-70
2022/03/21 02:45:51;;;;;;;10.77;7.43;;;;;;;;;;4982075;28;20038;-71
2022/03/21 02:48:18;;;;;;;11.35;7.97;;;;;;;;;;4981095;28;20148;-70
2022/03/21 02:50:56;;;;;;;16.10;7.93;;;;;;;;;;4975874;28;20034;-70
2022/03/21 02:53:22;;;;;;;13.25;7.78;;;;;;;;;;4974584;28;20089;-71
2022/03/21 02:55:53;;;;;;;13.60;7.80;;;;;;;;;;4982577;28;20070;-70
2022/03/21 02:58:19;;;;;;;11.77;7.50;;;;;;;;;;4979322;28;20038;-70
2022/03/21 03:00:44;;;;;;;12.68;7.75;;;;;;;;;;4978614;28;20038;-71
2022/03/21 03:03:09;;;;;;;12.63;7.45;;;;;;;;;;4969783;28;20445;-70
2022/03/21 03:05:35;;;;;;;11.30;7.13;;;;;;;;;;4982088;28;20042;-71
2022/03/21 03:08:02;;;;;;;12.60;8.23;;;;;;;;;;4975992;28;20038;-70
2022/03/21 03:10:27;;;;;;;12.25;7.55;;;;;;;;;;4975873;28;20566;-70
2022/03/21 03:12:53;;;;;;;14.32;7.30;;;;;;;;;;4970005;28;20050;-70
2022/03/21 03:15:18;;;;;;;14.70;8.30;;;;;;;;;;4979592;28;20038;-70
2022/03/21 03:17:44;;;;;;;15.05;8.27;;;;;;;;;;4982104;28;20101;-70
2022/03/21 03:20:10;;;;;;;17.33;8.48;;;;;;;;;;4966681;28;20046;-70
2022/03/21 03:22:37;;;;;;;12.75;8.40;;;;;;;;;;4979404;28;20566;-71
2022/03/21 03:25:04;;;;;;;18.23;7.85;;;;;;;;;;4972533;28;20037;-70
2022/03/21 03:27:30;;;;;;;14.63;7.78;;;;;;;;;;4977624;28;20117;-70
2022/03/21 03:29:57;;;;;;;13.13;8.65;;;;;;;;;;4982045;28;20496;-70
2022/03/21 03:32:23;;;;;;;16.27;7.93;;;;;;;;;;4981869;28;20035;-70
2022/03/21 03:34:49;;;;;;;11.70;7.68;;;;;;;;;;4980432;28;20034;-70
2022/03/21 03:37:16;;;;;;;13.73;8.18;;;;;;;;;;4979946;28;20045;-70
2022/03/21 03:39:41;;;;;;;14.23;8.15;;;;;;;;;;4978724;28;20048;-70
2022/03/21 03:42:07;;;;;;;13.65;7.72;;;;;;;;;;4955641;28;20407;-70
2022/03/21 03:44:32;;;;;;;13.10;7.72;;;;;;;;;;4973534;28;20053;-70
2022/03/21 03:46:58;;;;;;;12.88;7.70;;;;;;;;;;4973701;28;20037;-70
2022/03/21 03:49:23;;;;;;;12.68;8.05;;;;;;;;;;4972549;28;20068;-70
2022/03/21 03:51:49;;;;;;;11.05;7.63;;;;;;;;;;4973307;28;20106;-70
2022/03/21 03:54:15;;;;;;;12.98;7.97;;;;;;;;;;4967125;28;20027;-70
2022/03/21 03:56:40;;;;;;;12.40;7.80;;;;;;;;;;4969963;28;20519;-70
2022/03/21 03:59:06;;;;;;;18.15;8.07;;;;;;;;;;4978417;28;20447;-70
2022/03/21 04:01:31;;;;;;;12.63;8.25;;;;;;;;;;4973835;28;20117;-70
2022/03/21 04:03:59;;;;;;;13.48;7.93;;;;;;;;;;4982153;28;20066;-70
2022/03/21 04:06:25;;;;;;;15.75;7.90;;;;;;;;;;4960535;28;20112;-70
2022/03/21 04:08:51;;;;;;;23.60;7.78;;;;;;;;;;4980485;28;20034;-70
2022/03/21 04:11:17;;;;;;;14.68;8.63;;;;;;;;;;4972210;28;20042;-70
2022/03/21 04:13:43;;;;;;;14.93;7.97;;;;;;;;;;4979734;28;20041;-70
2022/03/21 04:16:09;;;;;;;13.43;8.27;;;;;;;;;;4980549;28;20046;-71
2022/03/21 04:18:36;;;;;;;13.52;8.60;;;;;;;;;;4980221;28;20042;-70
2022/03/21 04:21:03;;;;;;;16.08;8.60;;;;;;;;;;4981489;28;20034;-70
2022/03/21 04:23:28;;;;;;;15.98;9.63;;;;;;;;;;4981292;28;20068;-70
2022/03/21 04:25:54;;;;;;;14.05;9.43;;;;;;;;;;4977622;28;20029;-70
2022/03/21 04:28:19;;;;;;;13.35;8.95;;;;;;;;;;4981262;28;20802;-71
2022/03/21 04:30:45;;;;;;;15.80;10.05;;;;;;;;;;4977267;28;20482;-70
2022/03/21 04:33:12;;;;;;;22.42;13.82;;;;;;;;;;4971325;28;20034;-71
2022/03/21 04:35:38;;;;;;;34.30;18.15;;;;;;;;;;4970594;28;20046;-70
2022/03/21 04:38:12;;;;;;;30.60;17.02;;;;;;;;;;4978909;28;20505;-71
2022/03/21 04:40:38;;;;;;;16.88;9.88;;;;;;;;;;4972880;28;20054;-70
2022/03/21 04:43:04;;;;;;;17.95;10.20;;;;;;;;;;4966132;28;20411;-70
2022/03/21 04:45:29;;;;;;;14.30;8.68;;;;;;;;;;4969283;28;20059;-69
2022/03/21 04:47:54;;;;;;;14.85;7.60;;;;;;;;;;4975472;28;20042;-70
2022/03/21 04:50:20;;;;;;;12.32;7.85;;;;;;;;;;4981336;28;20058;-70
2022/03/21 04:52:46;;;;;;;12.35;8.27;;;;;;;;;;4977854;28;20030;-71
2022/03/21 04:55:15;;;;;;;17.38;8.98;;;;;;;;;;4974897;28;20038;-71
2022/03/21 04:57:41;;;;;;;18.08;8.85;;;;;;;;;;4980915;28;20479;-69
2022/03/21 05:00:07;;;;;;;17.88;9.07;;;;;;;;;;4978002;28;20038;-71
2022/03/21 05:02:32;;;;;;;15.95;8.75;;;;;;;;;;4978914;28;20084;-69
2022/03/21 05:04:58;;;;;;;18.48;9.07;;;;;;;;;;4969202;28;20403;-71
2022/03/21 05:07:25;;;;;;;15.35;9.27;;;;;;;;;;4980893;28;20046;-70
2022/03/21 05:09:51;;;;;;;15.43;9.32;;;;;;;;;;4975460;28;21345;-70
2022/03/21 05:12:16;;;;;;;18.30;9.00;;;;;;;;;;4980776;28;20034;-70
2022/03/21 05:14:42;;;;;;;18.10;9.13;;;;;;;;;;4981154;28;20462;-70
2022/03/21 05:17:10;;;;;;;13.02;8.13;;;;;;;;;;4977111;28;20045;-70
2022/03/21 05:19:36;;;;;;;14.10;8.98;;;;;;;;;;4974889;28;20038;-70
2022/03/21 05:22:06;;;;;;;17.00;9.43;;;;;;;;;;4972552;28;20089;-70
2022/03/21 05:32:45;;;;;;;19.70;9.18;;;;;;;;;;4966799;28;20491;-70
2022/03/21 05:37:54;;;;;;;16.40;9.20;;;;;;;;;;4969036;28;20081;-70
2022/03/21 05:40:34;;;;;;;15.38;9.13;;;;;;;;;;4973825;28;20133;-70
2022/03/21 05:43:00;;;;;;;13.52;9.00;;;;;;;;;;4975988;28;20031;-70
2022/03/21 05:45:25;;;;;;;18.45;9.68;;;;;;;;;;4976524;28;20038;-69
2022/03/21 05:50:36;;;;;;;37.50;20.48;;;;;;;;;;4968312;28;20403;-70
2022/03/21 05:53:03;;;;;;;14.48;9.55;;;;;;;;;;4966600;28;20440;-72
2022/03/21 05:55:32;;;;;;;19.30;9.00;;;;;;;;;;4966626;28;20665;-70
2022/03/21 05:57:58;;;;;;;13.88;8.55;;;;;;;;;;4971460;28;20117;-71
2022/03/21 06:00:25;;;;;;;19.48;8.73;;;;;;;;;;4977949;28;20042;-71
2022/03/21 06:02:51;;;;;;;17.73;8.85;;;;;;;;;;4978170;28;20046;-70
2022/03/21 06:05:20;;;;;;;16.90;8.30;;;;;;;;;;4979059;28;20043;-70
2022/03/21 06:07:47;;;;;;;16.85;8.90;;;;;;;;;;4971421;28;20476;-70
2022/03/21 06:10:13;;;;;;;14.40;9.05;;;;;;;;;;4982721;28;20609;-71
2022/03/21 06:12:40;;;;;;;15.77;8.63;;;;;;;;;;4983395;28;20042;-71
2022/03/21 06:15:07;;;;;;;12.57;8.60;;;;;;;;;;4979523;28;20035;-70
2022/03/21 06:17:38;;;;;;;13.82;8.18;;;;;;;;;;4980362;28;20085;-72
2022/03/21 06:20:09;;;;;;;13.02;8.07;;;;;;;;;;4974278;28;20476;-71
2022/03/21 06:22:34;;;;;;;12.75;8.18;;;;;;;;;;4969513;28;20143;-71
2022/03/21 06:25:00;;;;;;;14.18;8.55;;;;;;;;;;4971448;28;20062;-71
2022/03/21 06:27:25;;;;;;;11.77;8.38;;;;;;;;;;4969828;28;20038;-71
2022/03/21 06:29:51;;;;;;;12.00;7.65;;;;;;;;;;4978563;28;20058;-73
2022/03/21 06:32:16;;;;;;;11.18;7.57;;;;;;;;;;4970999;28;20045;-69
2022/03/21 06:34:42;;;;;;;11.93;8.27;;;;;;;;;;4982822;28;20037;-72
2022/03/21 06:37:08;;;;;;;12.18;7.85;;;;;;;;;;4982781;28;20046;-69
2022/03/21 06:39:34;;;;;;;10.48;7.30;;;;;;;;;;4982681;28;20488;-69
2022/03/21 06:41:59;;;;;;;18.50;8.00;;;;;;;;;;4982577;28;20140;-70
2022/03/21 06:44:24;;;;;;;12.73;7.70;;;;;;;;;;4982490;28;20503;-71
2022/03/21 06:46:50;;;;;;;15.65;8.23;;;;;;;;;;4982206;28;20121;-69
2022/03/21 06:49:15;;;;;;;11.40;7.88;;;;;;;;;;4978602;28;20035;-69
2022/03/21 06:51:41;;;;;;;16.17;8.43;;;;;;;;;;4966751;28;20065;-70
2022/03/21 06:54:06;;;;;;;16.05;7.55;;;;;;;;;;4971784;28;20083;-70
2022/03/21 06:56:32;;;;;;;13.10;8.02;;;;;;;;;;4982798;28;20488;-70
2022/03/21 06:58:57;;;;;;;9.73;7.15;;;;;;;;;;4971837;28;20042;-70
2022/03/21 07:01:23;;;;;;;11.93;7.82;;;;;;;;;;4972094;28;20035;-69
2022/03/21 07:03:49;;;;;;;12.43;7.93;;;;;;;;;;4970849;28;20381;-71
2022/03/21 07:06:15;;;;;;;15.43;8.48;;;;;;;;;;4975307;28;20038;-69
2022/03/21 07:08:40;;;;;;;18.25;8.52;;;;;;;;;;4974499;28;20115;-70
2022/03/21 07:11:12;;;;;;;14.90;8.93;;;;;;;;;;4955131;28;20450;-70
2022/03/21 07:13:37;;;;;;;12.70;8.60;;;;;;;;;;4975397;28;20104;-69
2022/03/21 07:16:03;;;;;;;12.88;8.85;;;;;;;;;;4972301;28;20113;-69
2022/03/21 07:18:28;;;;;;;19.33;8.93;;;;;;;;;;4976032;28;20026;-71
2022/03/21 07:20:55;;;;;;;15.15;8.93;;;;;;;;;;4953808;28;20035;-70
2022/03/21 07:23:20;;;;;;;13.30;8.68;;;;;;;;;;4969520;28;20042;-69
2022/03/21 07:25:47;;;;;;;16.73;8.95;;;;;;;;;;4968469;28;20030;-70
2022/03/21 07:28:12;;;;;;;15.10;9.07;;;;;;;;;;4978854;28;20038;-70
2022/03/21 07:30:38;;;;;;;11.50;8.38;;;;;;;;;;4975431;28;20820;-70
2022/03/21 07:33:03;;;;;;;15.23;8.70;;;;;;;;;;4982651;28;20042;-69
2022/03/21 07:35:29;;;;;;;12.02;8.00;;;;;;;;;;4980617;28;20034;-70
2022/03/21 07:37:57;;;;;;;12.52;8.02;;;;;;;;;;4979769;28;20403;-70
2022/03/21 07:40:24;;;;;;;14.00;8.60;;;;;;;;;;4968034;28;20070;-69
2022/03/21 07:42:49;;;;;;;12.18;8.30;;;;;;;;;;4980354;28;20092;-70
2022/03/21 07:48:01;;;;;;;14.85;8.32;;;;;;;;;;4972829;28;20038;-70
2022/03/21 07:50:27;;;;;;;10.18;7.63;;;;;;;;;;4972165;28;20041;-70
2022/03/21 07:52:54;;;;;;;10.23;7.57;;;;;;;;;;4966094;28;20583;-70
2022/03/21 07:55:21;;;;;;;12.20;8.20;;;;;;;;;;4967505;28;21050;-70
2022/03/21 08:00:46;;;;;;;14.88;8.13;;;;;;;;;;5716284;23;20116;-70
2022/03/21 08:03:14;;;;;;;14.20;7.80;;;;;;;;;;4970191;28;20058;-71
2022/03/21 08:05:40;;;;;;;14.52;8.48;;;;;;;;;;4965192;28;20045;-70
2022/03/21 08:08:07;;;;;;;11.15;7.60;;;;;;;;;;4974259;28;20026;-70
2022/03/21 08:10:33;;;;;;;14.65;8.23;;;;;;;;;;4942894;28;20499;-70
2022/03/21 08:12:58;;;;;;;12.82;8.38;;;;;;;;;;4946992;28;20094;-69
2022/03/21 08:15:23;;;;;;;13.75;7.80;;;;;;;;;;4948679;28;20133;-69
2022/03/21 08:17:56;;;;;;;10.95;7.53;;;;;;;;;;4957029;28;20038;-70
2022/03/21 08:20:21;;;;;;;;;;;;;;;;;;4944743;28;20035;-70
2022/03/21 08:22:47;;;;;;;12.93;8.35;;;;;;;;;;4957661;28;19949;-69
2022/03/21 08:25:17;;;;;;;15.45;8.55;;;;;;;;;;4942804;28;20424;-70
2022/03/21 08:27:46;;;;;;;12.68;8.15;;;;;;;;;;4953083;28;20050;-70
2022/03/21 08:30:15;;;;;;;13.40;8.43;;;;;;;;;;4943374;28;20070;-69
2022/03/21 08:32:48;;;;;;;10.73;8.45;;;;;;;;;;4942304;28;20053;-70
2022/03/21 08:35:15;;;;;;;9.95;7.90;;;;;;;;;;4949784;28;20035;-69
2022/03/21 08:37:41;;;;;;;13.20;8.73;;;;;;;;;;4946822;28;20042;-69
2022/03/21 08:40:08;;;;;;;11.82;8.82;;;;;;;;;;4945655;28;20039;-70
2022/03/21 08:42:34;;;;;;;11.73;8.38;;;;;;;;;;4939330;28;20055;-70
2022/03/21 08:45:52;;;;;;;12.65;7.65;;;;;;;;;;4950285;28;20102;-70
2022/03/21 08:48:18;;;;;;;12.20;8.60;;;;;;;;;;4951500;28;20477;-70
2022/03/21 08:50:43;;;;;;;12.18;8.52;;;;;;;;;;4951893;28;20046;-69
2022/03/21 08:53:08;;;;;;;11.43;8.20;;;;;;;;;;4948678;28;20039;-69
2022/03/21 08:55:34;;;;;;;11.75;8.48;;;;;;;;;;4954971;28;20039;-68
2022/03/21 08:58:00;;;;;;;18.85;8.25;;;;;;;;;;4950616;28;20039;-69
2022/03/21 09:00:25;;;;;;;11.52;8.32;;;;;;;;;;4944379;28;20027;-69
2022/03/21 09:02:54;;;;;;;15.65;8.65;;;;;;;;;;4949577;28;20122;-70
2022/03/21 09:05:20;;;;;;;14.98;8.95;;;;;;;;;;4949565;28;20030;-70
2022/03/21 09:10:48;;;;;;;13.25;8.77;;;;;;;;;;5594583;23;20247;-69
2022/03/21 09:17:02;;;;;;;11.30;8.52;;;;;;;;;;4959518;28;20053;-69
2022/03/21 09:19:29;;;;;;;11.93;8.57;;;;;;;;;;4951819;28;20031;-69
2022/03/21 09:21:58;;;;;;;14.18;8.85;;;;;;;;;;4949853;28;20050;-69
2022/03/21 09:24:24;;;;;;;12.65;9.15;;;;;;;;;;4955478;28;20117;-69
2022/03/21 09:26:50;;;;;;;12.52;8.25;;;;;;;;;;4945718;28;20551;-69
2022/03/21 09:29:16;;;;;;;14.73;9.13;;;;;;;;;;4957406;28;20045;-69
2022/03/21 09:31:41;;;;;;;14.57;8.65;;;;;;;;;;4955370;28;20102;-69
2022/03/21 09:34:08;;;;;;;16.33;9.15;;;;;;;;;;4952774;28;20063;-69
2022/03/21 09:36:34;;;;;;;12.60;8.02;;;;;;;;;;4954619;28;20039;-69
2022/03/21 09:38:59;;;;;;;11.02;8.40;;;;;;;;;;4955304;28;20027;-69
2022/03/21 09:41:27;;;;;;;12.35;8.68;;;;;;;;;;4951261;28;20166;-68
2022/03/21 09:43:54;;;;;;;10.55;8.23;;;;;;;;;;4950121;28;20433;-68
2022/03/21 09:46:21;;;;;;;14.38;8.80;;;;;;;;;;4957787;28;20045;-68
2022/03/21 09:48:48;;;;;;;13.13;8.40;;;;;;;;;;4952602;28;20037;-69
2022/03/21 09:51:20;;;;;;;11.65;8.75;;;;;;;;;;4950587;28;20067;-69
2022/03/21 09:53:46;;;;;;;18.15;9.05;;;;;;;;;;4944890;28;20035;-70
2022/03/21 09:56:12;;;;;;;11.05;8.80;;;;;;;;;;4944935;28;20056;-69
2022/03/21 09:58:37;;;;;;;13.73;9.07;;;;;;;;;;4946213;28;20401;-68
2022/03/21 10:01:03;;;;;;;10.70;8.10;;;;;;;;;;4948289;28;20114;-68
2022/03/21 10:03:29;;;;;;;14.73;8.95;;;;;;;;;;4952320;28;20039;-67
2022/03/21 10:05:54;;;;;;;14.00;9.20;;;;;;;;;;4957607;28;20034;-67
2022/03/21 10:08:25;;;;;;;12.55;9.43;;;;;;;;;;4954806;28;20052;-68
2022/03/21 10:11:02;;;;;;;11.65;8.40;;;;;;;;;;4955116;28;20031;-69
2022/03/21 10:13:36;;;;;;;14.40;9.52;;;;;;;;;;4954281;28;21272;-69
2022/03/21 10:16:20;;;;;;;10.82;8.80;;;;;;;;;;4951382;28;20043;-69
2022/03/21 10:18:51;;;;;;;14.25;9.15;;;;;;;;;;4947709;28;20039;-69
2022/03/21 10:21:17;;;;;;;15.23;8.65;;;;;;;;;;4953083;28;20482;-69
2022/03/21 10:23:44;;;;;;;15.63;9.07;;;;;;;;;;4945476;28;20050;-69
2022/03/21 10:26:39;;;;;;;14.07;9.57;;;;;;;;;;4943985;28;20047;-69
2022/03/21 10:29:10;;;;;;;12.27;8.77;;;;;;;;;;4939120;28;20178;-69
2022/03/21 10:31:40;;;;;;;13.60;9.35;;;;;;;;;;4945315;28;20035;-69
2022/03/21 10:34:11;;;;;;;12.80;9.35;;;;;;;;;;4946290;28;20043;-68
2022/03/21 10:37:00;;;;;;;15.57;9.05;;;;;;;;;;4947552;28;20035;-69
2022/03/21 10:39:26;;;;;;;16.65;9.82;;;;;;;;;;4944583;28;20035;-70
2022/03/21 10:42:10;;;;;;;20.15;9.77;;;;;;;;;;4944348;28;20571;-68
2022/03/21 10:44:37;;;;;;;13.52;8.95;;;;;;;;;;4947037;28;20034;-68
2022/03/21 10:47:05;;;;;;;12.48;8.50;;;;;;;;;;4943176;28;20045;-69
2022/03/21 10:49:46;;;;;;;16.00;9.23;;;;;;;;;;4944539;28;20066;-69
2022/03/21 10:52:17;;;;;;;13.23;8.65;;;;;;;;;;4944125;28;20333;-68
2022/03/21 10:54:49;;;;;;;15.20;9.88;;;;;;;;;;4950114;28;20121;-70
2022/03/21 10:57:36;;;;;;;14.23;9.23;;;;;;;;;;4943080;28;20113;-69
2022/03/21 11:00:17;;;;;;;11.80;9.10;;;;;;;;;;4943950;28;20031;-70
2022/03/21 11:03:07;;;;;;;12.20;8.85;;;;;;;;;;4944167;28;20035;-69
2022/03/21 11:05:38;;;;;;;18.95;9.80;;;;;;;;;;4944401;28;20042;-70
2022/03/21 11:08:09;;;;;;;12.90;9.43;;;;;;;;;;4944934;28;20805;-70
2022/03/21 11:10:35;;;;;;;13.20;9.65;;;;;;;;;;4946946;28;20043;-69
2022/03/21 11:13:03;;;;;;;11.65;9.10;;;;;;;;;;4943825;28;20035;-69
2022/03/21 11:15:30;;;;;;;12.90;9.07;;;;;;;;;;4943358;28;20062;-69
2022/03/21 11:17:57;;;;;;;14.93;9.25;;;;;;;;;;4948491;28;20035;-70
2022/03/21 11:20:23;;;;;;;13.60;9.00;;;;;;;;;;4945633;28;20118;-70
2022/03/21 11:22:49;;;;;;;13.60;9.27;;;;;;;;;;4955197;28;20054;-69
2022/03/21 11:25:17;;;;;;;13.00;9.75;;;;;;;;;;4953577;28;20038;-70
2022/03/21 11:28:03;;;;;;;12.30;9.00;;;;;;;;;;4950310;28;20439;-69
2022/03/21 11:30:46;;;;;;;9.00;7.95;;;;;;;;;;4946452;28;20039;-69
2022/03/21 11:33:26;;;;;;;11.70;8.70;;;;;;;;;;4955560;28;20243;-69
2022/03/21 11:36:00;;;;;;;11.07;8.20;;;;;;;;;;4948825;28;20042;-68
2022/03/21 11:38:29;;;;;;;13.45;8.32;;;;;;;;;;4945714;28;20042;-71
2022/03/21 11:41:15;;;;;;;13.45;9.45;;;;;;;;;;4945757;28;21115;-69
2022/03/21 11:43:43;;;;;;;11.13;8.27;;;;;;;;;;4943177;28;20413;-69
2022/03/21 11:46:31;;;;;;;12.00;8.27;;;;;;;;;;4943310;28;20031;-69
2022/03/21 11:49:17;;;;;;;14.05;9.50;;;;;;;;;;4943441;28;20038;-69
2022/03/21 11:51:43;;;;;;;15.20;9.35;;;;;;;;;;4941586;28;20043;-68
2022/03/21 11:54:28;;;;;;;10.45;8.27;;;;;;;;;;4939631;28;20446;-69
2022/03/21 11:56:55;;;;;;;9.88;7.82;;;;;;;;;;4943749;28;20106;-68
2022/03/21 11:59:33;;;;;;;9.27;7.18;;;;;;;;;;4942972;28;20042;-69
2022/03/21 12:02:22;;;;;;;9.93;7.22;;;;;;;;;;4950659;28;20046;-70
2022/03/21 12:05:05;;;;;;;14.55;7.75;;;;;;;;;;4951176;28;20043;-69
2022/03/21 12:07:32;;;;;;;9.05;7.40;;;;;;;;;;4951241;28;20083;-69
2022/03/21 12:09:58;;;;;;;12.35;8.82;;;;;;;;;;4945229;28;20034;-70
2022/03/21 12:12:51;;;;;;;12.30;8.65;;;;;;;;;;4950924;28;20034;-68
2022/03/21 12:15:29;;;;;;;13.95;8.68;;;;;;;;;;4941083;28;20058;-69
2022/03/21 12:17:55;;;;;;;12.90;9.38;;;;;;;;;;4953563;28;20042;-69
2022/03/21 12:20:21;;;;;;;11.23;8.55;;;;;;;;;;4948537;28;20039;-69
2022/03/21 12:22:47;;;;;;;10.65;8.13;;;;;;;;;;4946818;28;20047;-69
2022/03/21 12:25:16;;;;;;;10.35;7.85;;;;;;;;;;4946372;28;20089;-69
2022/03/21 12:27:53;;;;;;;13.40;8.57;;;;;;;;;;4951223;28;20045;-69
2022/03/21 12:30:27;;;;;;;10.93;9.00;;;;;;;;;;4951479;28;20063;-69
2022/03/21 12:32:57;;;;;;;15.65;9.32;;;;;;;;;;4945543;28;20381;-69
2022/03/21 12:35:42;;;;;;;24.52;9.00;;;;;;;;;;4945995;28;20485;-68
2022/03/21 12:38:21;;;;;;;17.48;8.13;;;;;;;;;;4945394;28;20035;-68
2022/03/21 12:40:47;;;;;;;15.98;7.70;;;;;;;;;;4941715;28;20150;-70
2022/03/21 12:47:01;;;;;;;15.27;8.63;;;;;;;;;;4948411;28;20081;-69
2022/03/21 12:49:49;;;;;;;14.30;8.25;;;;;;;;;;4952928;28;20105;-68
2022/03/21 12:52:26;;;;;;;11.45;8.43;;;;;;;;;;4949761;28;20069;-68
2022/03/21 12:54:53;;;;;;;12.55;8.40;;;;;;;;;;4950437;28;20046;-68
2022/03/21 12:57:18;;;;;;;12.82;8.27;;;;;;;;;;4949171;28;20133;-68
2022/03/21 12:59:44;;;;;;;13.23;8.32;;;;;;;;;;4949536;28;20572;-69
2022/03/21 13:02:28;;;;;;;12.80;8.27;;;;;;;;;;4952200;28;20390;-70
2022/03/21 13:10:32;;;;;;;10.73;7.50;;;;;;;;;;4950327;28;20784;-69
2022/03/21 13:13:00;;;;;;;12.20;7.95;;;;;;;;;;4943961;28;20038;-69
2022/03/21 13:15:28;;;;;;;10.60;7.60;;;;;;;;;;4943836;28;20089;-69
2022/03/21 13:18:01;;;;;;;10.05;7.07;;;;;;;;;;4944376;28;20050;-70
2022/03/21 13:20:31;;;;;;;12.27;8.23;;;;;;;;;;4953108;28;20044;-69
2022/03/21 13:23:01;;;;;;;13.10;8.02;;;;;;;;;;4955010;28;20049;-69
2022/03/21 13:25:30;;;;;;;11.95;8.35;;;;;;;;;;4954485;28;20142;-69
2022/03/21 13:28:11;;;;;;;11.65;7.85;;;;;;;;;;4947064;28;20039;-69
2022/03/21 13:30:37;;;;;;;14.07;8.13;;;;;;;;;;4952232;28;20404;-69
2022/03/21 13:33:02;;;;;;;10.45;7.57;;;;;;;;;;4944124;28;20050;-70
2022/03/21 13:35:30;;;;;;;10.95;7.90;;;;;;;;;;4945408;28;20496;-70
2022/03/21 13:38:03;;;;;;;11.50;7.75;;;;;;;;;;4956495;28;20090;-68
2022/03/21 13:40:29;;;;;;;14.65;7.90;;;;;;;;;;4951928;28;20126;-70
2022/03/21 13:42:54;;;;;;;14.45;7.82;;;;;;;;;;4949536;28;20161;-70
2022/03/21 13:45:20;;;;;;;12.48;7.53;;;;;;;;;;4946785;28;20031;-70
2022/03/21 13:47:50;;;;;;;11.98;8.30;;;;;;;;;;4945596;28;20377;-69
2022/03/21 13:50:16;;;;;;;12.65;9.10;;;;;;;;;;4955254;28;20062;-70
2022/03/21 13:52:53;;;;;;;12.02;9.32;;;;;;;;;;4946794;28;20031;-70
2022/03/21 13:55:24;;;;;;;13.38;8.70;;;;;;;;;;4949706;28;20039;-70
2022/03/21 13:57:51;;;;;;;12.95;7.97;;;;;;;;;;4954893;28;21369;-71
2022/03/21 14:00:31;;;;;;;15.02;8.52;;;;;;;;;;4950273;28;20042;-70
2022/03/21 14:02:58;;;;;;;14.65;8.77;;;;;;;;;;4951371;28;20039;-70
2022/03/21 14:05:26;;;;;;;12.88;9.20;;;;;;;;;;4955688;28;20543;-70
2022/03/21 14:08:08;;;;;;;15.32;8.93;;;;;;;;;;4946502;28;20035;-70
2022/03/21 14:10:39;;;;;;;12.80;9.13;;;;;;;;;;4950433;28;20039;-71
2022/03/21 14:13:22;;;;;;;13.20;9.30;;;;;;;;;;4944725;28;20077;-69
2022/03/21 14:15:49;;;;;;;13.63;8.90;;;;;;;;;;4941560;28;20107;-70
2022/03/21 14:18:23;;;;;;;16.80;9.00;;;;;;;;;;4945983;28;20591;-70
2022/03/21 14:20:49;;;;;;;18.13;9.23;;;;;;;;;;4942713;28;20487;-68
2022/03/21 14:23:14;;;;;;;12.80;8.68;;;;;;;;;;4945916;28;20050;-70
2022/03/21 14:28:23;;;;;;;13.75;9.00;;;;;;;;;;4947279;28;20046;-70
2022/03/21 14:30:49;;;;;;;18.42;9.88;;;;;;;;;;4940475;28;20039;-69
2022/03/21 14:33:15;;;;;;;13.50;8.88;;;;;;;;;;4942601;28;20039;-70
2022/03/21 14:35:41;;;;;;;14.30;8.60;;;;;;;;;;4941148;28;20086;-70
2022/03/21 14:38:06;;;;;;;12.88;8.15;;;;;;;;;;4946781;28;20587;-70
2022/03/21 14:40:34;;;;;;;11.75;8.68;;;;;;;;;;4943528;28;20042;-70
2022/03/21 14:43:00;;;;;;;13.25;9.23;;;;;;;;;;4949598;28;20459;-70
2022/03/21 14:45:26;;;;;;;14.10;9.63;;;;;;;;;;4949297;28;20480;-69
2022/03/21 14:47:51;;;;;;;17.90;10.80;;;;;;;;;;4953396;28;20035;-70
2022/03/21 14:50:17;;;;;;;13.98;9.15;;;;;;;;;;4950077;28;20036;-69
2022/03/21 14:52:43;;;;;;;18.33;9.45;;;;;;;;;;4931988;28;20070;-69
2022/03/21 14:55:08;;;;;;;17.60;10.02;;;;;;;;;;4943680;28;20031;-69
2022/03/21 14:57:34;;;;;;;17.08;9.82;;;;;;;;;;4946567;28;20456;-70
2022/03/21 15:00:00;;;;;;;15.90;10.27;;;;;;;;;;4950411;28;20503;-70
2022/03/21 15:02:25;;;;;;;13.93;9.48;;;;;;;;;;4944460;28;20039;-70
2022/03/21 15:04:51;;;;;;;14.32;9.77;;;;;;;;;;4944083;28;20045;-70
2022/03/21 15:07:17;;;;;;;15.23;10.10;;;;;;;;;;4948094;28;20042;-69
2022/03/21 15:12:27;;;;;;;14.70;10.13;;;;;;;;;;4945155;28;20031;-70
2022/03/21 15:14:53;;;;;;;14.52;9.60;;;;;;;;;;4943748;28;20039;-71
2022/03/21 15:17:19;;;;;;;18.63;10.25;;;;;;;;;;4944137;28;20023;-69
2022/03/21 15:19:44;;;;;;;17.98;12.00;;;;;;;;;;4951467;28;20567;-69
2022/03/21 15:22:10;;;;;;;20.83;11.45;;;;;;;;;;4931660;28;20073;-68